METAR Data
IDs: Format: Raw Decoded Include TAF

Data at: 0123 UTC 24 Sep 2018

K1M4 232356Z AUTO 00000KT 10SM OVC100 26/22 A3001 RMK AO2 SLP168 T02610217 10311 20261 53006
K1M4 232256Z AUTO 00000KT 10SM FEW049 27/23 A3000 RMK AO2 SLP164 T02720233
K1M4 232156Z AUTO 00000KT 10SM CLR 28/22 A3000 RMK AO2 SLP162 T02830217
K1M4 232056Z AUTO 16007KT 130V200 10SM CLR 29/21 A2999 RMK AO2 SLP160 T02940206 56022
K1M4 231956Z AUTO 22006KT 10SM FEW045 29/19 A3001 RMK AO2 SLP165 T02940194
K1M4 231856Z AUTO 21008G16KT 10SM FEW035 29/21 A3003 RMK AO2 SLP173 T02940206
K1M4 231656Z AUTO 19009KT 10SM SCT035 28/21 A3007 RMK AO2 SLP186 T02830206
K1M4 231556Z AUTO 19005KT 10SM FEW018 27/23 A3008 RMK AO2 SLP191 T02720228
K1M4 231456Z AUTO 19006KT 10SM CLR 26/22 A3008 RMK AO2 SLP191 T02560222 51012
K1M4 231356Z AUTO 19005KT 10SM FEW100 24/22 A3007 RMK AO2 SLP189 T02440222
K1M4 231256Z AUTO 19004KT 10SM CLR 23/22 A3006 RMK AO2 SLP186 T02280217
K1M4 231156Z AUTO 17004KT 9SM CLR 22/21 A3004 RMK AO2 SLP180 70006 T02220211 10222 20211 53007
K1M4 231056Z AUTO 00000KT 9SM CLR 22/21 A3003 RMK AO2 SLP175 T02170211
K1M4 230956Z AUTO 00000KT 7SM CLR 22/21 A3002 RMK AO2 SLP173 T02170211
K1M4 230856Z AUTO 00000KT 4SM BR CLR 21/21 A3002 RMK AO2 SLP171 T02110211 56008
K1M4 230853Z AUTO 00000KT 4SM BR CLR 21/21 A3002 RMK AO2
K1M4 230756Z AUTO 00000KT 2SM BR FEW002 21/21 A3003 RMK AO2 VIS 1V4 SLP171 T02110211
K1M4 230729Z AUTO 00000KT 2 1/2SM BR FEW003 21/21 A3004 RMK AO2
K1M4 230656Z AUTO 00000KT 10SM SCT027 BKN035 22/21 A3005 RMK AO2 SLP177 T02170211
K1M4 230556Z AUTO 00000KT 8SM CLR 22/21 A3004 RMK AO2 SLP177 60006 T02170211 10250 20217 58010
K1M4 230456Z AUTO VRB04KT 10SM FEW033 BKN075 OVC100 22/21 A3006 RMK AO2 RAE27 SLP182 P0001 T02220211 403220206
K1M4 230356Z AUTO 30005KT 7SM -RA FEW023 BKN044 OVC080 22/22 A3008 RMK AO2 RAB22 SLP189 P0005 T02220217
K1M4 230256Z AUTO 08003KT 10SM BKN046 BKN060 OVC100 23/21 A3007 RMK AO2 SLP188 T02330211 51012
K1M4 230156Z AUTO 04003KT 10SM SCT100 23/21 A3007 RMK AO2 SLP187 T02330211
K1M4 230056Z AUTO 33005KT 10SM BKN090 OVC110 24/21 A3006 RMK AO2 SLP185 T02390211
K1M4 222356Z AUTO 27004KT 10SM FEW085 BKN120 25/21 A3004 RMK AO2 LTG DSNT NW SLP178 60000 T02500206 10322 20250 51010
K1M4 222256Z AUTO 25003KT 10SM OVC085 26/21 A3003 RMK AO2 LTG DSNT NW SLP176 T02560206
K1M4 222056Z AUTO 21008KT 10SM CLR 28/22 A3001 RMK AO2 LTG DSNT SW AND NW SLP165 60000 T02830217 56024
K1M4 221956Z AUTO 19010KT 10SM BKN110 31/21 A3001 RMK AO2 SLP167 T03060206
K1M4 221856Z AUTO 18010KT 10SM FEW070 31/21 A3005 RMK AO2 RAB1759E10 SLP178 P0000 T03110206
K1M4 221756Z AUTO 21005KT 10SM FEW036 SCT046 BKN065 29/22 A3008 RMK AO2 SLP190 T02940222 10306 20206 58012
K1M4 221656Z AUTO 21005KT 10SM BKN033 BKN042 BKN050 29/22 A3010 RMK AO2 SLP196 T02890222
K1M4 221556Z AUTO VRB06KT 10SM FEW027 SCT044 29/22 A3012 RMK AO2 SLP202 T02940222
K1M4 221456Z AUTO VRB04KT 10SM SCT060 27/22 A3012 RMK AO2 SLP202 T02720222 51005
K1M4 221356Z AUTO 17006KT 10SM CLR 26/22 A3011 RMK AO2 SLP203 T02560222